Time;durP1;ratioP1;P1;durP2;ratioP2;P2;SDS_P1;SDS_P2;PMS_P1;PMS_P2;Temp;Humidity;BMP_temperature;BMP_pressure;BME280_temperature;BME280_humidity;BME280_pressure;Samples;Min_cycle;Max_cycle;Signal;HPM_P1;HPM_P2
2023/05/24 00:02:22;;;;;;;0.40;0.40;;;;;;;11.56;72.29;100609.50;5043844;28;20363;-75
2023/05/24 00:04:48;;;;;;;0.32;0.32;;;;;;;11.50;72.28;100610.44;5043909;28;20017;-74
2023/05/24 00:07:15;;;;;;;0.30;0.30;;;;;;;11.43;72.26;100616.53;5044165;28;20025;-75
2023/05/24 00:09:41;;;;;;;0.30;0.30;;;;;;;11.38;72.42;100612.25;5026244;28;20025;-74
2023/05/24 00:12:07;;;;;;;0.32;0.32;;;;;;;11.39;72.46;100620.91;5025944;28;20021;-75
2023/05/24 00:14:32;;;;;;;0.43;0.43;;;;;;;11.19;72.90;100595.94;5043897;28;20033;-75
2023/05/24 00:16:58;;;;;;;2.05;0.75;;;;;;;11.32;73.25;100617.50;5043756;28;20021;-75
2023/05/24 00:19:24;;;;;;;0.40;0.40;;;;;;;11.27;73.63;100614.94;5025957;28;20025;-75
2023/05/24 00:21:50;;;;;;;0.30;0.30;;;;;;;11.21;74.45;100608.94;5043989;28;20045;-76
2023/05/24 00:24:16;;;;;;;0.40;0.40;;;;;;;11.21;75.24;100614.13;5043627;28;20041;-74
2023/05/24 00:26:41;;;;;;;0.50;0.50;;;;;;;11.18;75.36;100620.22;5043772;28;20349;-76
2023/05/24 00:29:07;;;;;;;0.88;0.88;;;;;;;11.13;75.42;100609.84;5044752;28;20021;-74
2023/05/24 00:31:32;;;;;;;0.30;0.30;;;;;;;11.08;75.14;100606.44;5046812;28;20486;-75
2023/05/24 00:33:58;;;;;;;0.30;0.30;;;;;;;11.18;75.11;100619.34;5044766;28;20053;-76
2023/05/24 00:36:23;;;;;;;0.30;0.30;;;;;;;11.17;75.62;100622.84;5042492;28;20060;-74
2023/05/24 00:38:49;;;;;;;0.30;0.30;;;;;;;11.14;76.08;100613.31;5043611;28;20068;-75
2023/05/24 00:41:15;;;;;;;0.38;0.38;;;;;;;11.18;75.83;100629.75;5042167;28;20022;-74
2023/05/24 00:43:43;;;;;;;0.50;0.50;;;;;;;11.16;75.71;100632.34;5043431;28;20025;-76
2023/05/24 00:46:11;;;;;;;0.30;0.30;;;;;;;11.18;75.55;100641.00;5043355;28;20048;-75
2023/05/24 00:48:36;;;;;;;0.40;0.40;;;;;;;11.14;75.41;100629.75;5025998;28;20029;-75
2023/05/24 00:51:01;;;;;;;0.30;0.30;;;;;;;11.18;75.38;100634.94;5043792;28;20055;-74
2023/05/24 00:53:27;;;;;;;0.30;0.30;;;;;;;11.19;75.15;100636.66;5043948;28;20032;-74
2023/05/24 00:55:53;;;;;;;0.30;0.30;;;;;;;11.15;74.96;100633.22;5047361;28;20027;-75
2023/05/24 00:58:20;;;;;;;0.30;0.30;;;;;;;11.16;74.95;100650.53;5047400;28;20021;-75
2023/05/24 01:00:48;;;;;;;0.30;0.30;;;;;;;11.12;74.52;100647.09;5047414;28;20081;-75
2023/05/24 01:03:14;;;;;;;0.30;0.30;;;;;;;11.08;74.50;100645.41;5047313;28;20021;-75
2023/05/24 01:05:39;;;;;;;0.95;0.95;;;;;;;11.07;74.63;100646.25;5047212;28;20060;-76
2023/05/24 01:08:41;;;;;;;0.40;0.40;;;;;;;11.02;75.16;100645.44;5047171;28;20052;-74
2023/05/24 01:11:28;;;;;;;0.40;0.40;;;;;;;10.99;75.23;100650.66;5017490;28;20037;-74
2023/05/24 01:14:18;;;;;;;0.30;0.30;;;;;;;10.93;75.54;100645.50;5047119;28;20028;-73
2023/05/24 01:16:52;;;;;;;0.50;0.50;;;;;;;10.90;75.54;100648.97;5046863;28;20354;-75
2023/05/24 01:19:43;;;;;;;0.30;0.30;;;;;;;10.87;75.57;100643.78;5029077;28;20060;-74
2023/05/24 01:22:23;;;;;;;0.40;0.40;;;;;;;10.84;75.33;100655.06;5029006;28;20529;-74
2023/05/24 01:25:26;;;;;;;0.32;0.32;;;;;;;10.82;75.73;100654.22;5047065;28;20037;-74
2023/05/24 01:27:52;;;;;;;0.30;0.30;;;;;;;10.72;76.02;100647.34;5046699;28;20029;-75
2023/05/24 01:30:19;;;;;;;0.30;0.30;;;;;;;10.72;76.09;100645.59;5046642;28;20049;-74
2023/05/24 01:32:45;;;;;;;0.30;0.30;;;;;;;10.70;76.11;100644.75;5038349;28;20029;-74
2023/05/24 01:35:10;;;;;;;0.40;0.40;;;;;;;10.69;75.93;100645.63;5028588;28;20036;-74
2023/05/24 01:37:35;;;;;;;0.30;0.30;;;;;;;10.68;75.92;100650.81;5046661;28;20205;-76
2023/05/24 01:40:03;;;;;;;0.30;0.30;;;;;;;10.72;76.19;100652.53;5028609;28;20026;-75
2023/05/24 01:42:44;;;;;;;1.42;1.33;;;;;;;10.64;76.58;100640.44;5028293;28;20148;-75
2023/05/24 01:45:27;;;;;;;0.50;0.50;;;;;;;10.63;77.78;100649.13;5028917;28;20033;-76
2023/05/24 01:48:03;;;;;;;0.40;0.40;;;;;;;10.63;77.38;100633.53;5044988;28;20082;-75
2023/05/24 01:50:35;;;;;;;0.30;0.30;;;;;;;10.61;77.18;100635.28;5046313;28;20032;-75
2023/05/24 01:53:07;;;;;;;0.40;0.40;;;;;;;10.58;76.90;100630.09;5046244;28;20021;-74
2023/05/24 01:55:35;;;;;;;0.30;0.30;;;;;;;10.64;76.21;100639.56;5046040;28;20040;-75
2023/05/24 01:58:02;;;;;;;0.40;0.40;;;;;;;10.65;76.17;100646.50;5045944;28;20035;-75
2023/05/24 02:00:28;;;;;;;0.30;0.30;;;;;;;10.61;76.35;100643.06;5046325;28;20017;-74
2023/05/24 02:02:56;;;;;;;0.30;0.30;;;;;;;10.54;76.36;100634.44;5045973;28;20025;-73
2023/05/24 02:05:21;;;;;;;0.30;0.30;;;;;;;10.56;76.02;100647.41;5046037;28;20028;-73
2023/05/24 02:07:47;;;;;;;0.30;0.30;;;;;;;10.56;75.82;100651.75;5046136;28;20021;-72
2023/05/24 02:10:12;;;;;;;0.30;0.30;;;;;;;10.46;75.85;100640.50;5045746;28;20476;-73
2023/05/24 02:12:37;;;;;;;0.30;0.30;;;;;;;10.40;75.86;100641.38;5046018;28;20101;-73
2023/05/24 02:15:03;;;;;;;0.30;0.30;;;;;;;10.37;75.62;100644.84;5045883;28;20080;-73
2023/05/24 02:17:31;;;;;;;0.38;0.38;;;;;;;10.36;75.53;100645.75;5046118;28;20033;-72
2023/05/24 02:20:00;;;;;;;0.40;0.40;;;;;;;10.31;75.55;100642.28;5045856;28;20022;-72
2023/05/24 02:22:26;;;;;;;0.40;0.40;;;;;;;10.29;75.55;100646.59;5044912;28;20124;-72
2023/05/24 02:24:52;;;;;;;0.40;0.40;;;;;;;10.26;75.12;100646.63;5044808;28;20030;-71
2023/05/24 02:27:17;;;;;;;0.30;0.30;;;;;;;10.10;75.18;100633.69;5045578;28;20025;-71
2023/05/24 02:29:43;;;;;;;0.40;0.40;;;;;;;10.19;75.36;100655.31;5045586;28;20044;-71
2023/05/24 02:32:08;;;;;;;0.38;0.38;;;;;;;10.15;75.24;100660.50;5045355;28;20489;-71
2023/05/24 02:34:34;;;;;;;0.40;0.40;;;;;;;10.15;75.22;100670.88;5045401;28;20060;-71
2023/05/24 02:37:00;;;;;;;0.30;0.30;;;;;;;10.10;74.96;100667.44;5045627;28;20100;-71
2023/05/24 02:39:26;;;;;;;0.40;0.40;;;;;;;10.07;75.13;100658.78;5045405;28;20029;-71
2023/05/24 02:41:51;;;;;;;0.40;0.40;;;;;;;10.09;74.91;100657.94;5045161;28;20042;-72
2023/05/24 02:44:17;;;;;;;0.40;0.40;;;;;;;10.04;75.06;100660.53;5045229;28;20291;-72
2023/05/24 02:46:42;;;;;;;0.30;0.30;;;;;;;9.99;75.04;100651.00;5045193;28;20027;-72
2023/05/24 02:49:09;;;;;;;0.30;0.30;;;;;;;10.00;75.06;100657.94;5045304;28;20029;-72
2023/05/24 02:51:35;;;;;;;0.40;0.40;;;;;;;9.97;75.29;100660.56;5045163;28;20036;-72
2023/05/24 02:54:02;;;;;;;0.30;0.30;;;;;;;9.95;75.35;100662.28;5044824;28;20033;-71
2023/05/24 02:56:28;;;;;;;0.38;0.38;;;;;;;9.97;75.35;100666.59;5045027;28;20017;-71
2023/05/24 02:58:54;;;;;;;0.40;0.40;;;;;;;9.98;75.52;100670.06;5045052;28;20083;-71
2023/05/24 03:01:20;;;;;;;0.30;0.30;;;;;;;10.02;75.44;100676.94;5043411;28;20393;-70
2023/05/24 03:03:46;;;;;;;1.15;1.15;;;;;;;9.97;75.55;100670.94;5027135;28;20017;-72
2023/05/24 03:06:12;;;;;;;0.40;0.40;;;;;;;10.01;75.57;100675.22;5044847;28;20291;-71
2023/05/24 03:08:38;;;;;;;0.30;0.30;;;;;;;9.98;75.78;100672.66;5044841;28;20028;-71
2023/05/24 03:11:04;;;;;;;0.40;0.40;;;;;;;10.09;76.22;100672.63;5044830;28;20085;-70
2023/05/24 03:13:29;;;;;;;0.30;0.30;;;;;;;10.26;76.66;100676.03;5044706;28;20025;-70
2023/05/24 03:15:55;;;;;;;0.30;0.30;;;;;;;10.49;77.41;100666.47;5044515;28;20084;-71
2023/05/24 03:18:20;;;;;;;0.30;0.30;;;;;;;10.73;77.43;100673.31;5044189;28;20160;-71
2023/05/24 03:20:46;;;;;;;0.30;0.30;;;;;;;11.02;77.79;100674.03;5044690;28;20450;-71
2023/05/24 03:23:11;;;;;;;0.30;0.30;;;;;;;11.24;77.82;100661.75;5044657;28;20101;-72
2023/05/24 03:25:37;;;;;;;0.30;0.30;;;;;;;11.59;78.13;100664.94;5043189;28;20029;-72
2023/05/24 03:28:02;;;;;;;0.50;0.50;;;;;;;11.92;78.09;100675.03;5025881;28;20047;-72
2023/05/24 03:30:28;;;;;;;0.30;0.30;;;;;;;12.16;77.93;100672.25;5043554;28;20387;-71
2023/05/24 03:32:53;;;;;;;0.30;0.30;;;;;;;12.41;78.12;100671.97;5044214;28;20040;-73
2023/05/24 03:35:19;;;;;;;0.30;0.30;;;;;;;12.66;78.15;100676.88;5044301;28;20515;-72
2023/05/24 03:37:45;;;;;;;0.30;0.30;;;;;;;12.91;78.34;100663.53;5044213;28;20049;-73
2023/05/24 03:40:11;;;;;;;0.40;0.40;;;;;;;13.08;77.93;100674.56;5044491;28;20017;-73
2023/05/24 03:42:37;;;;;;;0.30;0.30;;;;;;;13.21;77.50;100679.59;5044281;28;20041;-72
2023/05/24 03:45:04;;;;;;;0.30;0.30;;;;;;;13.19;77.13;100683.97;5044260;28;20064;-72
2023/05/24 03:47:29;;;;;;;0.30;0.30;;;;;;;13.31;77.39;100680.31;5044148;28;20085;-73
2023/05/24 03:49:55;;;;;;;0.30;0.30;;;;;;;13.43;77.06;100679.25;5044265;28;20254;-75
2023/05/24 03:52:20;;;;;;;3.40;1.95;;;;;;;13.41;76.12;100687.13;5026222;28;20031;-74
2023/05/24 03:54:45;;;;;;;0.50;0.50;;;;;;;13.45;76.65;100686.16;5044220;28;20036;-74
2023/05/24 03:57:11;;;;;;;0.30;0.30;;;;;;;13.68;77.39;100684.09;5044068;28;20053;-73
2023/05/24 03:59:36;;;;;;;0.30;0.30;;;;;;;13.92;76.95;100684.56;5044045;28;20488;-74
2023/05/24 04:02:01;;;;;;;0.30;0.30;;;;;;;14.12;76.61;100695.50;5043612;28;20045;-73
2023/05/24 04:04:27;;;;;;;0.30;0.30;;;;;;;14.33;76.59;100682.09;5043947;28;20021;-74
2023/05/24 04:06:52;;;;;;;0.28;0.28;;;;;;;14.70;76.79;100688.28;5044152;28;20076;-74
2023/05/24 04:09:18;;;;;;;0.30;0.30;;;;;;;14.93;75.97;100676.50;5026339;28;20052;-73
2023/05/24 04:11:44;;;;;;;0.30;0.30;;;;;;;15.13;75.34;100685.66;5043665;28;20029;-70
2023/05/24 04:14:10;;;;;;;0.30;0.30;;;;;;;15.26;74.87;100684.47;5025939;28;20474;-76
2023/05/24 04:16:38;;;;;;;0.30;0.30;;;;;;;15.16;74.03;100675.13;5043703;28;20021;-73
2023/05/24 04:19:04;;;;;;;0.50;0.50;;;;;;;15.04;73.39;100691.94;5042696;28;20030;-73
2023/05/24 04:21:31;;;;;;;0.30;0.30;;;;;;;14.86;72.69;100694.94;5026087;28;20029;-73
2023/05/24 04:23:57;;;;;;;0.40;0.40;;;;;;;14.77;73.41;100695.13;5043717;28;20029;-74
2023/05/24 04:26:23;;;;;;;0.20;0.20;;;;;;;14.72;73.52;100692.59;5025800;28;20048;-73
2023/05/24 04:28:48;;;;;;;0.30;0.30;;;;;;;14.76;72.68;100706.44;5043096;28;20032;-73
2023/05/24 04:31:15;;;;;;;0.30;0.30;;;;;;;14.67;73.24;100701.41;5029869;28;20025;-72
2023/05/24 04:33:41;;;;;;;0.20;0.20;;;;;;;14.75;73.31;100703.00;5029874;28;20017;-74
2023/05/24 04:36:07;;;;;;;3.53;1.77;;;;;;;14.63;72.58;100700.63;5047935;28;20287;-73
2023/05/24 04:38:35;;;;;;;0.30;0.30;;;;;;;14.60;72.75;100700.69;5030055;28;20017;-84
2023/05/24 04:41:01;;;;;;;0.30;0.30;;;;;;;14.78;73.13;100704.66;5047768;28;20017;-75
2023/05/24 04:43:27;;;;;;;0.20;0.20;;;;;;;14.95;72.97;100712.16;5029602;28;20056;-75
2023/05/24 04:45:53;;;;;;;0.30;0.30;;;;;;;15.11;72.86;100707.47;5029297;28;20021;-74
2023/05/24 04:48:22;;;;;;;0.28;0.28;;;;;;;15.23;72.60;100719.41;5047541;28;20080;-73
2023/05/24 04:50:49;;;;;;;0.40;0.40;;;;;;;15.16;71.97;100727.44;5047745;28;20025;-75
2023/05/24 04:53:14;;;;;;;0.20;0.20;;;;;;;15.30;72.80;100719.25;5047297;28;20029;-75
2023/05/24 04:55:41;;;;;;;0.30;0.30;;;;;;;15.72;72.81;100723.47;5046917;28;20025;-75
2023/05/24 04:58:07;;;;;;;0.30;0.30;;;;;;;16.08;72.34;100718.25;5047689;28;20021;-77
2023/05/24 05:00:32;;;;;;;0.20;0.20;;;;;;;16.42;72.67;100728.72;5047291;28;20068;-76
2023/05/24 05:02:58;;;;;;;0.20;0.20;;;;;;;17.02;72.49;100723.50;5047189;28;20045;-76
2023/05/24 05:05:23;;;;;;;0.20;0.20;;;;;;;17.55;72.03;100716.63;5047364;28;20026;-75
2023/05/24 05:07:48;;;;;;;0.30;0.30;;;;;;;18.16;71.82;100726.91;5047120;28;20505;-77
2023/05/24 05:10:14;;;;;;;0.20;0.20;;;;;;;18.57;70.03;100728.94;5047041;28;20021;-75
2023/05/24 05:12:40;;;;;;;0.20;0.20;;;;;;;18.76;69.18;100715.97;5045584;28;20077;-75
2023/05/24 05:15:06;;;;;;;0.20;0.20;;;;;;;19.10;68.52;100718.22;5047404;28;20087;-76
2023/05/24 05:17:31;;;;;;;0.20;0.20;;;;;;;19.50;67.61;100726.28;5046733;28;20041;-76
2023/05/24 05:19:57;;;;;;;0.20;0.20;;;;;;;19.98;68.35;100724.31;5046952;28;20029;-75
2023/05/24 05:22:22;;;;;;;0.20;0.20;;;;;;;20.43;67.83;100727.63;5046967;28;20036;-76
2023/05/24 05:24:48;;;;;;;0.20;0.20;;;;;;;20.83;67.78;100728.53;5046619;28;20051;-76
2023/05/24 05:27:13;;;;;;;0.20;0.20;;;;;;;21.18;67.16;100741.88;5046789;28;20029;-75
2023/05/24 05:29:39;;;;;;;0.20;0.20;;;;;;;21.27;66.21;100733.50;5046806;28;20114;-75
2023/05/24 05:32:04;;;;;;;0.20;0.20;;;;;;;21.36;65.33;100742.75;5046413;28;20021;-75
2023/05/24 05:34:30;;;;;;;0.35;0.35;;;;;;;21.39;65.50;100731.22;5046934;28;20029;-76
2023/05/24 05:36:55;;;;;;;0.40;0.40;;;;;;;21.54;65.53;100730.44;5046842;28;20025;-75
2023/05/24 05:39:20;;;;;;;0.17;0.17;;;;;;;21.85;63.26;100740.44;5046026;28;20104;-72
2023/05/24 05:41:46;;;;;;;0.20;0.20;;;;;;;22.56;61.35;100742.97;5046429;28;20045;-74
2023/05/24 05:44:12;;;;;;;0.10;0.10;;;;;;;23.15;60.65;100735.31;5046495;28;20543;-75
2023/05/24 05:46:38;;;;;;;0.20;0.20;;;;;;;23.76;59.28;100739.00;5046615;28;20510;-74
2023/05/24 05:49:05;;;;;;;0.40;0.40;;;;;;;23.46;54.71;100746.00;5046465;28;20191;-67
2023/05/24 05:51:31;;;;;;;0.75;0.52;;;;;;;23.16;53.60;100749.44;5046398;28;20029;-68
2023/05/24 05:53:56;;;;;;;0.73;0.73;;;;;;;23.32;55.41;100756.50;5046259;28;20017;-66
2023/05/24 05:56:22;;;;;;;0.10;0.10;;;;;;;23.34;53.25;100751.97;5046156;28;20028;-67
2023/05/24 05:58:47;;;;;;;0.20;0.20;;;;;;;23.35;53.21;100756.31;5046208;28;20025;-66
2023/05/24 06:01:14;;;;;;;0.30;0.30;;;;;;;23.12;52.78;100754.03;5046031;28;20060;-68
2023/05/24 06:03:40;;;;;;;0.20;0.20;;;;;;;22.96;52.63;100766.41;5045873;28;20040;-67
2023/05/24 06:06:05;;;;;;;0.17;0.17;;;;;;;22.31;50.99;100770.72;5046115;28;20049;-67
2023/05/24 06:08:33;;;;;;;0.20;0.20;;;;;;;22.28;53.37;100767.28;5028341;28;20109;-67
2023/05/24 06:10:59;;;;;;;0.30;0.30;;;;;;;22.72;53.60;100766.81;5028360;28;20087;-66
2023/05/24 06:13:27;;;;;;;0.20;0.20;;;;;;;22.99;53.04;100761.81;5045909;28;20029;-68
2023/05/24 06:15:52;;;;;;;2.42;2.22;;;;;;;23.38;50.72;100761.44;5046041;28;20048;-67
2023/05/24 06:18:18;;;;;;;0.20;0.20;;;;;;;23.46;50.40;100758.38;5046012;28;20398;-67
2023/05/24 06:20:43;;;;;;;0.20;0.20;;;;;;;23.71;50.40;100760.47;5045949;28;20025;-67
2023/05/24 06:23:09;;;;;;;0.17;0.17;;;;;;;24.00;50.20;100762.34;5045865;28;20029;-66
2023/05/24 06:25:34;;;;;;;0.10;0.10;;;;;;;24.29;49.35;100762.41;5045728;28;20022;-67
2023/05/24 06:27:59;;;;;;;0.20;0.20;;;;;;;24.17;48.10;100761.34;5045808;28;20101;-67
2023/05/24 06:30:25;;;;;;;0.22;0.22;;;;;;;24.45;48.67;100761.47;5045517;28;20528;-67
2023/05/24 06:32:50;;;;;;;0.10;0.10;;;;;;;24.86;48.65;100768.63;5045579;28;20032;-68
2023/05/24 06:35:16;;;;;;;0.20;0.20;;;;;;;25.40;47.73;100775.94;5045362;28;20028;-67
2023/05/24 06:37:42;;;;;;;3.00;1.75;;;;;;;25.85;46.80;100762.34;5054963;23;20075;-56
2023/05/24 06:40:11;;;;;;;0.10;0.10;;;;;;;26.42;45.83;100786.03;5119167;22;20044;-71
2023/05/24 06:42:37;;;;;;;0.10;0.10;;;;;;;26.53;44.63;100787.94;5101817;23;20107;-59
2023/05/24 06:45:03;;;;;;;0.15;0.15;;;;;;;27.03;45.42;100792.47;5105545;28;20028;-59
2023/05/24 06:47:29;;;;;;;0.30;0.30;;;;;;;27.35;44.32;100791.88;5105614;28;20424;-58
2023/05/24 06:49:54;;;;;;;0.13;0.13;;;;;;;27.45;43.51;100790.25;5105627;28;20016;-59
2023/05/24 06:52:19;;;;;;;0.40;0.40;;;;;;;27.67;42.13;100790.50;5104702;28;20024;-59
2023/05/24 06:54:45;;;;;;;0.20;0.20;;;;;;;27.60;41.34;100788.25;5105375;28;20099;-58
2023/05/24 06:57:10;;;;;;;0.10;0.10;;;;;;;28.04;41.19;100784.16;5105568;28;20103;-59
2023/05/24 06:59:36;;;;;;;0.43;0.43;;;;;;;27.75;41.04;100784.59;5105671;28;20044;-60
2023/05/24 07:02:01;;;;;;;0.95;0.95;;;;;;;27.63;41.07;100794.31;5103085;28;20506;-60
2023/05/24 07:04:27;;;;;;;0.20;0.20;;;;;;;27.21;40.56;100792.91;5104316;28;20541;-60
2023/05/24 07:06:53;;;;;;;0.70;0.70;;;;;;;26.82;40.85;100795.69;5105521;28;20070;-59
2023/05/24 07:09:19;;;;;;;0.10;0.10;;;;;;;26.81;41.86;100801.94;5105282;28;20016;-59
2023/05/24 07:11:44;;;;;;;0.25;0.25;;;;;;;27.05;41.11;100798.50;5104876;28;20078;-60
2023/05/24 07:14:10;;;;;;;0.15;0.15;;;;;;;27.42;41.08;100808.28;5105161;28;20024;-59
2023/05/24 07:16:36;;;;;;;2.40;0.93;;;;;;;27.84;41.51;100799.91;5104892;28;20050;-59
2023/05/24 07:19:01;;;;;;;0.13;0.13;;;;;;;28.15;41.35;100804.69;5105072;28;20024;-59
2023/05/24 07:21:27;;;;;;;0.70;0.70;;;;;;;28.14;39.13;100801.19;5105174;28;20023;-59
2023/05/24 07:23:52;;;;;;;0.40;0.40;;;;;;;27.89;38.43;100803.06;5105172;28;20027;-59
2023/05/24 07:26:18;;;;;;;0.30;0.30;;;;;;;27.61;38.82;100813.09;5104788;28;20028;-61
2023/05/24 07:28:43;;;;;;;1.45;1.17;;;;;;;27.31;39.22;100815.28;5103807;28;20027;-61
2023/05/24 07:31:09;;;;;;;0.10;0.10;;;;;;;27.73;39.30;100808.72;5104252;28;20051;-59
2023/05/24 07:33:37;;;;;;;0.32;0.32;;;;;;;28.18;38.75;100807.97;5104844;28;20024;-59
2023/05/24 07:36:07;;;;;;;0.15;0.15;;;;;;;28.49;38.58;100814.56;5104933;28;20028;-60
2023/05/24 07:38:33;;;;;;;0.10;0.10;;;;;;;28.85;37.94;100817.13;5105036;28;20035;-60
2023/05/24 07:40:59;;;;;;;0.50;0.50;;;;;;;29.09;36.81;100816.16;5104527;28;20044;-59
2023/05/24 07:43:26;;;;;;;0.10;0.10;;;;;;;29.46;36.31;100820.31;5104812;28;20024;-60
2023/05/24 07:45:52;;;;;;;0.17;0.17;;;;;;;29.90;35.29;100820.25;5104763;28;20046;-59
2023/05/24 07:48:18;;;;;;;0.20;0.20;;;;;;;30.27;34.63;100811.78;5104246;28;20016;-58
2023/05/24 07:50:47;;;;;;;1.00;0.95;;;;;;;30.54;33.62;100823.75;5104710;28;20024;-59
2023/05/24 07:53:16;;;;;;;0.10;0.10;;;;;;;30.74;33.50;100815.78;5104407;28;20080;-59
2023/05/24 07:55:43;;;;;;;0.80;0.80;;;;;;;30.98;32.86;100827.16;5104471;28;20031;-59
2023/05/24 07:58:09;;;;;;;0.35;0.35;;;;;;;31.17;33.41;100818.31;5104463;28;20019;-59
2023/05/24 08:00:34;;;;;;;0.10;0.10;;;;;;;31.29;33.60;100821.72;5104355;28;20024;-59
2023/05/24 08:03:00;;;;;;;0.10;0.10;;;;;;;31.25;33.64;100814.94;5103687;28;20031;-59
2023/05/24 08:05:26;;;;;;;0.50;0.50;;;;;;;30.99;33.95;100821.66;5104467;28;20024;-59
2023/05/24 08:07:52;;;;;;;0.10;0.10;;;;;;;30.77;34.51;100818.19;5104609;28;20020;-59
2023/05/24 08:10:18;;;;;;;0.30;0.30;;;;;;;30.74;33.03;100821.16;5104130;28;20046;-58
2023/05/24 08:12:43;;;;;;;0.40;0.40;;;;;;;30.41;31.61;100818.63;5104284;28;20027;-59
2023/05/24 08:15:09;;;;;;;0.10;0.10;;;;;;;30.14;32.30;100817.31;5104024;28;20034;-59
2023/05/24 08:17:36;;;;;;;0.38;0.38;;;;;;;30.28;33.04;100810.81;5103989;28;20028;-60
2023/05/24 08:20:06;;;;;;;0.15;0.15;;;;;;;30.37;33.11;100811.81;5104332;28;20020;-59
2023/05/24 08:22:32;;;;;;;0.10;0.10;;;;;;;30.18;32.81;100807.19;5103936;28;20016;-59
2023/05/24 08:24:58;;;;;;;0.10;0.10;;;;;;;30.43;32.94;100808.59;5104379;28;20028;-59
2023/05/24 08:27:23;;;;;;;0.10;0.10;;;;;;;30.42;32.72;100809.59;5104333;28;20035;-58
2023/05/24 08:29:49;;;;;;;0.90;0.90;;;;;;;30.40;33.41;100803.53;5104314;28;20107;-59
2023/05/24 08:32:14;;;;;;;0.10;0.10;;;;;;;30.82;32.91;100809.78;5104011;28;20028;-60
2023/05/24 08:34:39;;;;;;;0.65;0.65;;;;;;;30.63;31.95;100816.75;5104074;28;20105;-59
2023/05/24 08:37:05;;;;;;;0.20;0.20;;;;;;;30.21;32.89;100806.94;5104321;28;20032;-60
2023/05/24 08:39:31;;;;;;;0.20;0.20;;;;;;;30.33;32.67;100801.53;5104065;28;20020;-60
2023/05/24 08:41:57;;;;;;;0.10;0.10;;;;;;;30.73;31.95;100815.91;5103937;28;20047;-59
2023/05/24 08:44:23;;;;;;;1.42;1.30;;;;;;;31.06;31.76;100816.59;5103899;28;20455;-59
2023/05/24 08:46:50;;;;;;;0.10;0.10;;;;;;;31.41;32.05;100827.81;5103712;28;20024;-59
2023/05/24 08:49:15;;;;;;;1.40;1.30;;;;;;;31.55;31.42;100831.94;5102772;28;20043;-59
2023/05/24 08:51:43;;;;;;;0.10;0.10;;;;;;;31.49;31.06;100830.66;5103896;28;20024;-59
2023/05/24 08:54:10;;;;;;;0.10;0.10;;;;;;;31.95;31.28;100823.91;5104015;28;20035;-58
2023/05/24 08:56:38;;;;;;;0.45;0.45;;;;;;;31.71;31.15;100835.91;5104089;28;20020;-59
2023/05/24 08:59:04;;;;;;;0.10;0.10;;;;;;;32.01;31.72;100823.31;5103849;28;20027;-58
2023/05/24 09:01:30;;;;;;;0.32;0.32;;;;;;;32.39;31.16;100831.41;5103896;28;20030;-58
2023/05/24 09:03:56;;;;;;;0.10;0.10;;;;;;;32.84;31.05;100824.47;5102655;28;20051;-59
2023/05/24 09:06:24;;;;;;;0.10;0.10;;;;;;;33.04;30.77;100827.00;5103904;28;20059;-59
2023/05/24 09:08:51;;;;;;;0.43;0.43;;;;;;;33.26;29.33;100836.53;5103929;28;20027;-58
2023/05/24 09:11:17;;;;;;;0.10;0.10;;;;;;;33.48;29.63;100845.16;5103814;28;20035;-58
2023/05/24 09:13:46;;;;;;;0.38;0.38;;;;;;;33.63;28.98;100841.94;5103835;28;20044;-59
2023/05/24 09:16:13;;;;;;;0.40;0.40;;;;;;;33.73;29.32;100841.84;5106728;28;20024;-58
2023/05/24 09:18:41;;;;;;;0.10;0.10;;;;;;;33.51;29.49;100842.16;5107333;28;20043;-59
2023/05/24 09:21:07;;;;;;;0.15;0.15;;;;;;;33.28;29.86;100831.00;5107406;28;20043;-59
2023/05/24 09:23:33;;;;;;;0.25;0.25;;;;;;;33.54;30.33;100843.69;5107683;28;20046;-58
2023/05/24 09:26:06;;;;;;;0.10;0.10;;;;;;;33.68;29.72;100849.53;5107388;28;20032;-59
2023/05/24 09:28:31;;;;;;;0.10;0.10;;;;;;;33.68;29.93;100844.16;5107219;28;20023;-60
2023/05/24 09:31:00;;;;;;;0.17;0.17;;;;;;;33.61;29.67;100847.47;5107082;28;20032;-59
2023/05/24 09:33:33;;;;;;;0.17;0.17;;;;;;;33.46;28.55;100848.97;5105489;28;20132;-59
2023/05/24 09:36:01;;;;;;;0.10;0.10;;;;;;;33.14;29.54;100845.81;5107223;28;20032;-58
2023/05/24 09:38:27;;;;;;;0.10;0.10;;;;;;;33.12;29.80;100848.66;5107089;28;20059;-59
2023/05/24 09:41:03;;;;;;;0.10;0.10;;;;;;;32.93;29.54;100844.22;5106790;28;20055;-59
2023/05/24 09:43:33;;;;;;;0.10;0.10;;;;;;;32.76;29.64;100845.84;5107034;28;20031;-58
2023/05/24 09:46:02;;;;;;;0.30;0.30;;;;;;;32.94;29.35;100839.69;5107167;28;20036;-59
2023/05/24 09:48:28;;;;;;;0.40;0.40;;;;;;;32.94;29.19;100842.38;5106788;28;20024;-59
2023/05/24 09:51:10;;;;;;;0.10;0.10;;;;;;;32.86;29.06;100841.25;5105420;28;20020;-58
2023/05/24 09:53:36;;;;;;;0.10;0.10;;;;;;;32.91;29.34;100848.88;5106984;28;20020;-59
2023/05/24 09:56:07;;;;;;;0.45;0.45;;;;;;;32.82;29.44;100836.34;5106793;28;20028;-59
2023/05/24 09:58:33;;;;;;;0.17;0.17;;;;;;;32.99;28.91;100848.97;5106781;28;20032;-59
2023/05/24 10:01:06;;;;;;;0.20;0.20;;;;;;;32.88;29.06;100833.03;5106863;28;20403;-58
2023/05/24 10:03:32;;;;;;;0.20;0.20;;;;;;;32.80;28.81;100852.63;5106613;28;20024;-59
2023/05/24 10:06:00;;;;;;;0.17;0.17;;;;;;;32.79;29.42;100850.94;5106523;28;20028;-59
2023/05/24 10:08:26;;;;;;;0.20;0.20;;;;;;;32.94;28.79;100853.13;5106580;28;20027;-59
2023/05/24 10:10:53;;;;;;;0.15;0.15;;;;;;;32.87;29.26;100852.88;5106206;28;20024;-60
2023/05/24 10:13:21;;;;;;;0.22;0.22;;;;;;;32.81;28.72;100850.78;5106385;28;20102;-59
2023/05/24 10:15:47;;;;;;;0.10;0.10;;;;;;;32.90;28.28;100863.31;5106341;28;20052;-59
2023/05/24 10:18:12;;;;;;;0.28;0.28;;;;;;;32.74;28.57;100859.44;5106102;28;20035;-59
2023/05/24 10:20:39;;;;;;;0.10;0.10;;;;;;;32.57;28.23;100863.78;5106341;28;20039;-59
2023/05/24 10:23:09;;;;;;;0.05;0.05;;;;;;;32.12;28.22;100855.38;5104783;28;20024;-59
2023/05/24 10:25:40;;;;;;;0.30;0.30;;;;;;;31.87;29.01;100864.84;5106079;28;20435;-59
2023/05/24 10:28:11;;;;;;;;;;;;;;;31.40;29.49;100859.19;5106626;28;20020;-58
2023/05/24 10:30:42;;;;;;;0.27;0.27;;;;;;;31.12;29.69;100863.47;5106020;28;20346;-59
2023/05/24 10:33:08;;;;;;;;;;;;;;;30.89;29.29;100859.19;5106410;28;20063;-60
2023/05/24 10:35:36;;;;;;;0.13;0.13;;;;;;;30.70;29.71;100848.34;5106025;28;19907;-59
2023/05/24 10:38:06;;;;;;;0.10;0.10;;;;;;;30.45;30.41;100862.03;5106012;28;20471;-59
2023/05/24 10:40:32;;;;;;;0.30;0.30;;;;;;;30.36;30.51;100846.78;5105761;28;20378;-58
2023/05/24 10:42:58;;;;;;;0.20;0.20;;;;;;;30.41;29.96;100861.47;5104571;28;20082;-59
2023/05/24 10:45:23;;;;;;;0.10;0.10;;;;;;;30.36;30.59;100857.47;5105805;28;20020;-59
2023/05/24 10:47:49;;;;;;;0.10;0.10;;;;;;;30.27;30.85;100873.34;5105647;28;20039;-59
2023/05/24 10:50:19;;;;;;;0.10;0.10;;;;;;;30.15;30.75;100866.34;5105835;28;20532;-59
2023/05/24 10:52:46;;;;;;;0.10;0.10;;;;;;;30.00;31.18;100868.50;5105636;28;20376;-60
2023/05/24 10:55:12;;;;;;;0.43;0.43;;;;;;;29.53;31.25;100878.50;5105541;28;20048;-59
2023/05/24 10:57:38;;;;;;;0.10;0.10;;;;;;;28.76;32.64;100874.81;5105792;28;20027;-59
2023/05/24 11:00:27;;;;;;;0.20;0.20;;;;;;;27.90;33.10;100884.78;5105691;28;20020;-58
2023/05/24 11:03:01;;;;;;;0.90;0.90;;;;;;;26.90;34.85;100883.03;5105352;28;20020;-59
2023/05/24 11:05:56;;;;;;;0.20;0.20;;;;;;;26.55;35.09;100877.38;5105609;28;20024;-59
2023/05/24 11:08:29;;;;;;;0.10;0.10;;;;;;;26.07;35.79;100880.59;5096180;28;20036;-59
2023/05/24 11:11:09;;;;;;;0.10;0.10;;;;;;;25.64;36.22;100873.66;5105095;28;20024;-58
2023/05/24 11:13:36;;;;;;;0.10;0.10;;;;;;;25.34;36.56;100872.81;5105485;28;20030;-59
2023/05/24 11:16:02;;;;;;;0.10;0.10;;;;;;;24.94;36.83;100879.72;5105270;28;20048;-60
2023/05/24 11:18:27;;;;;;;0.28;0.28;;;;;;;24.45;37.88;100876.44;5114181;22;20044;-59
2023/05/24 11:20:53;;;;;;;0.20;0.20;;;;;;;23.91;38.65;100868.94;5103873;28;20099;-59
2023/05/24 11:23:19;;;;;;;0.43;0.43;;;;;;;23.54;39.06;100879.81;5104914;28;20019;-59
2023/05/24 11:25:46;;;;;;;0.60;0.60;;;;;;;23.07;40.47;100883.19;5104899;28;20055;-59
2023/05/24 11:28:12;;;;;;;0.10;0.10;;;;;;;22.64;40.96;100870.44;5103902;28;20088;-60